Página principal
METAR-TAF:

METAR-TAF

Aeroportos :

Port Alsworth, Alasca, Estados Unidos

latitude: 60-12N, longitude: 154-19W, altura: 85 m

Observação actual do tempo

O boletim foi feito há 8 horas e 36 minutos, às 02:55 UTC
Vento 10 kt de oeste
Temperatura 23°C
Humidade 50%
Pressão 1009 hPa
Visibilidade: 64.4 km
Nuvens dispersasa uma altura de 15000 ft

METAR: PALJ 220255Z 26010KT 40SM SCT150 23/12 A2980 RMK EST PASS OPN NOSPECI

Hora: 03:31 (11:31 UTC)


TAF: em falta

Observações e previsões do tempo de mais de 4000 aeroportos (mensagens METAR e TAF).

As estações disponíveis são os pontos amarelos e vermelhos sobre o mapa.

Mova o rato sobre o mapa para ver o nome da estação.

Depois clique no ponto para visualizar as observações e previsões meteorológicas.

Para alterar o mapa : clique nos botões verdes com uma cruz preta para aumentar o zoom; no botão verde com uma pitada de zoom; ou nas setas verdes para mapas adjacentes.


METAR-TAF: